createdAt,value
2023-05-08T00:02:16.544Z,3.43
2023-05-08T00:04:48.345Z,3.20
2023-05-08T00:07:19.946Z,3.32
2023-05-08T00:09:51.527Z,3.45
2023-05-08T00:12:23.174Z,3.64
2023-05-08T00:14:54.746Z,3.42
2023-05-08T00:17:26.807Z,3.45
2023-05-08T00:19:58.424Z,3.51
2023-05-08T00:22:30.107Z,3.77
2023-05-08T00:25:01.833Z,3.34
2023-05-08T00:27:33.447Z,3.47
2023-05-08T00:30:07.777Z,3.45
2023-05-08T00:32:39.383Z,3.32
2023-05-08T00:35:10.998Z,3.45
2023-05-08T00:37:42.795Z,3.36
2023-05-08T00:40:14.736Z,3.29
2023-05-08T00:42:47.138Z,3.42
2023-05-08T00:45:18.899Z,3.26
2023-05-08T00:47:51.539Z,3.38
2023-05-08T00:50:23.458Z,3.47
2023-05-08T00:52:57.057Z,3.65
2023-05-08T00:55:29.789Z,3.27
2023-05-08T00:58:01.629Z,3.67
2023-05-08T01:00:33.607Z,3.66
2023-05-08T01:03:05.372Z,3.61
2023-05-08T01:05:37.970Z,3.90
2023-05-08T01:08:09.519Z,3.65
2023-05-08T01:11:01.756Z,3.63
2023-05-08T01:13:59.505Z,3.84
2023-05-08T01:16:52.877Z,3.54
2023-05-08T01:19:58.962Z,3.87
2023-05-08T01:22:39.381Z,3.80
2023-05-08T01:25:17.034Z,3.89
2023-05-08T01:28:13.505Z,3.94
2023-05-08T01:30:48.407Z,4.10
2023-05-08T01:33:30.440Z,4.12
2023-05-08T01:36:23.654Z,3.96
2023-05-08T01:39:10.062Z,4.22
2023-05-08T01:41:50.680Z,4.18
2023-05-08T01:44:31.598Z,3.51
2023-05-08T01:47:08.147Z,4.08
2023-05-08T01:49:50.470Z,4.12
2023-05-08T01:52:35.424Z,3.82
2023-05-08T01:55:24.326Z,4.04
2023-05-08T01:57:59.612Z,4.12
2023-05-08T02:00:32.128Z,4.20
2023-05-08T02:03:07.964Z,4.26
2023-05-08T02:05:42.829Z,4.22
2023-05-08T02:08:15.641Z,4.16
2023-05-08T02:10:50.711Z,4.19
2023-05-08T02:13:23.343Z,4.06
2023-05-08T02:15:58.489Z,3.79
2023-05-08T02:18:32.246Z,3.66
2023-05-08T02:21:06.285Z,3.75
2023-05-08T02:23:38.574Z,3.93
2023-05-08T02:26:13.714Z,3.65
2023-05-08T02:28:46.861Z,3.57
2023-05-08T02:31:20.834Z,4.01
2023-05-08T02:33:54.137Z,4.04
2023-05-08T02:36:27.176Z,4.26
2023-05-08T02:39:03.004Z,4.21
2023-05-08T02:41:40.614Z,4.17
2023-05-08T02:44:12.880Z,4.20
2023-05-08T02:47:00.593Z,4.31
2023-05-08T02:49:46.397Z,4.30
2023-05-08T02:52:33.114Z,4.55
2023-05-08T02:55:23.245Z,4.21
2023-05-08T02:58:25.099Z,4.27
2023-05-08T03:01:08.188Z,4.32
2023-05-08T03:03:59.608Z,4.24
2023-05-08T03:06:38.837Z,4.46
2023-05-08T03:09:18.675Z,4.58
2023-05-08T03:11:59.446Z,4.39
2023-05-08T03:14:39.287Z,4.76
2023-05-08T03:17:16.357Z,4.74
2023-05-08T03:19:52.491Z,4.57
2023-05-08T03:22:28.810Z,4.79
2023-05-08T03:25:04.038Z,4.53
2023-05-08T03:27:37.271Z,5.10
2023-05-08T03:30:11.969Z,4.78
2023-05-08T03:32:47.898Z,4.75
2023-05-08T03:35:21.973Z,5.09
2023-05-08T03:37:53.980Z,4.76
2023-05-08T03:40:27.829Z,4.86
2023-05-08T03:43:01.645Z,4.74
2023-05-08T03:45:38.481Z,4.98
2023-05-08T03:48:11.579Z,4.93
2023-05-08T03:50:44.961Z,4.98
2023-05-08T03:53:16.841Z,5.22
2023-05-08T03:55:48.795Z,5.47
2023-05-08T03:59:13.385Z,4.90
2023-05-08T04:01:57.590Z,5.24
2023-05-08T04:04:43.916Z,5.06
2023-05-08T04:07:47.006Z,5.55
2023-05-08T04:10:23.761Z,5.14
2023-05-08T04:13:10.592Z,5.47
2023-05-08T04:15:54.588Z,5.58
2023-05-08T04:18:37.193Z,5.07
2023-05-08T04:21:11.411Z,5.53
2023-05-08T04:23:45.847Z,5.45
2023-05-08T04:26:19.386Z,5.33
2023-05-08T04:28:54.198Z,5.35
2023-05-08T04:31:28.360Z,5.22
2023-05-08T04:34:03.091Z,5.55
2023-05-08T04:36:35.733Z,5.50
2023-05-08T04:39:09.911Z,5.50
2023-05-08T04:41:42.176Z,5.41
2023-05-08T04:44:14.055Z,5.32
2023-05-08T04:46:45.704Z,5.47
2023-05-08T04:49:17.321Z,5.56
2023-05-08T04:51:48.900Z,5.49
2023-05-08T04:54:20.512Z,5.40
2023-05-08T04:56:52.195Z,5.77
2023-05-08T04:59:24.025Z,5.35
2023-05-08T05:01:57.074Z,5.65
2023-05-08T05:04:29.165Z,5.36
2023-05-08T05:07:02.986Z,5.56
2023-05-08T05:09:34.636Z,5.17
2023-05-08T05:12:07.182Z,4.85
2023-05-08T05:14:39.160Z,5.31
2023-05-08T05:17:10.808Z,5.29
2023-05-08T05:19:42.444Z,5.13
2023-05-08T05:22:14.144Z,5.07
2023-05-08T05:24:45.827Z,5.18
2023-05-08T05:27:19.320Z,5.02
2023-05-08T05:29:52.477Z,5.27
2023-05-08T05:32:24.104Z,5.22
2023-05-08T05:34:55.809Z,5.38
2023-05-08T05:37:27.732Z,5.29
2023-05-08T05:39:59.570Z,5.47
2023-05-08T05:42:31.141Z,5.07
2023-05-08T05:45:02.725Z,4.74
2023-05-08T05:47:35.894Z,5.15
2023-05-08T05:50:10.315Z,4.86
2023-05-08T05:52:42.073Z,5.04
2023-05-08T05:55:14.042Z,4.89
2023-05-08T05:57:46.039Z,4.84
2023-05-08T06:00:18.193Z,5.21
2023-05-08T06:02:54.524Z,5.09
2023-05-08T06:05:26.317Z,5.34
2023-05-08T06:07:58.024Z,5.10
2023-05-08T06:10:29.625Z,5.13
2023-05-08T06:13:01.840Z,5.44
2023-05-08T06:15:34.497Z,5.17
2023-05-08T06:18:06.557Z,5.04
2023-05-08T06:20:39.114Z,5.23
2023-05-08T06:23:11.363Z,4.82
2023-05-08T06:25:43.178Z,4.47
2023-05-08T06:28:14.917Z,4.30
2023-05-08T06:30:46.897Z,4.24
2023-05-08T06:33:19.003Z,4.26
2023-05-08T06:35:52.417Z,4.16
2023-05-08T06:38:24.245Z,4.40
2023-05-08T06:40:56.480Z,4.54
2023-05-08T06:43:28.608Z,4.33
2023-05-08T06:46:00.561Z,4.88
2023-05-08T06:48:32.321Z,4.99
2023-05-08T06:51:04.293Z,4.73
2023-05-08T06:53:36.019Z,4.79
2023-05-08T06:56:08.257Z,4.61
2023-05-08T06:58:39.836Z,4.96
2023-05-08T07:01:11.658Z,5.34
2023-05-08T07:03:43.250Z,4.92
2023-05-08T07:06:14.904Z,4.62
2023-05-08T07:08:46.604Z,4.91
2023-05-08T07:11:18.279Z,4.77
2023-05-08T07:13:49.874Z,4.69
2023-05-08T07:16:21.508Z,3.85
2023-05-08T07:18:53.080Z,4.11
2023-05-08T07:21:24.736Z,4.63
2023-05-08T07:23:56.391Z,4.43
2023-05-08T07:26:28.039Z,4.54
2023-05-08T07:28:59.608Z,4.36
2023-05-08T07:31:31.200Z,3.95
2023-05-08T07:34:02.782Z,3.21
2023-05-08T07:36:34.562Z,2.74
2023-05-08T07:39:06.356Z,3.28
2023-05-08T07:41:37.938Z,2.59
2023-05-08T07:44:09.550Z,2.78
2023-05-08T07:46:41.310Z,3.00
2023-05-08T07:49:12.956Z,2.76
2023-05-08T07:51:44.502Z,2.97
2023-05-08T07:54:16.123Z,3.18
2023-05-08T07:56:47.713Z,3.27
2023-05-08T07:59:19.274Z,2.89
2023-05-08T08:01:50.890Z,2.60
2023-05-08T08:04:22.549Z,2.88
2023-05-08T08:06:54.217Z,2.52
2023-05-08T08:09:26.008Z,2.42
2023-05-08T08:11:58.099Z,2.67
2023-05-08T08:14:29.785Z,2.43
2023-05-08T08:17:01.614Z,2.27
2023-05-08T08:19:33.431Z,2.42
2023-05-08T08:22:06.409Z,2.03
2023-05-08T08:24:38.229Z,2.36
2023-05-08T08:27:10.106Z,2.30
2023-05-08T08:29:42.022Z,3.14
2023-05-08T08:32:13.932Z,3.25
2023-05-08T08:34:45.614Z,3.22
2023-05-08T08:37:17.441Z,3.14
2023-05-08T08:39:49.420Z,3.35
2023-05-08T08:42:21.956Z,3.21
2023-05-08T08:44:55.778Z,3.70
2023-05-08T08:47:33.006Z,3.38
2023-05-08T08:50:05.521Z,2.98
2023-05-08T08:53:09.994Z,3.26
2023-05-08T08:55:50.766Z,2.86
2023-05-08T08:58:33.375Z,2.71
2023-05-08T09:01:09.359Z,2.55
2023-05-08T09:03:42.539Z,3.19
2023-05-08T09:06:14.996Z,3.14
2023-05-08T09:08:47.371Z,3.09
2023-05-08T09:11:19.394Z,3.91
2023-05-08T09:13:52.052Z,3.00
2023-05-08T09:16:25.126Z,2.62
2023-05-08T09:18:56.904Z,3.16
2023-05-08T09:21:29.496Z,3.07
2023-05-08T09:24:04.074Z,3.21
2023-05-08T09:26:38.266Z,3.48
2023-05-08T09:29:09.921Z,3.26
2023-05-08T09:31:47.320Z,2.52
2023-05-08T09:34:31.041Z,2.04
2023-05-08T09:37:05.586Z,2.03
2023-05-08T09:39:37.294Z,1.77
2023-05-08T09:42:09.612Z,2.42
2023-05-08T09:44:51.233Z,2.37
2023-05-08T09:47:24.814Z,2.35
2023-05-08T09:49:59.342Z,2.47
2023-05-08T09:52:33.166Z,2.57
2023-05-08T09:55:10.021Z,2.73
2023-05-08T09:57:53.689Z,2.64
2023-05-08T10:00:27.449Z,2.82
2023-05-08T10:03:01.689Z,3.24
2023-05-08T10:05:35.054Z,2.62
2023-05-08T10:08:24.091Z,3.04
2023-05-08T10:11:16.705Z,3.11
2023-05-08T10:13:48.602Z,3.68
2023-05-08T10:16:22.605Z,2.97
2023-05-08T10:19:00.860Z,3.20
2023-05-08T10:21:36.884Z,2.99
2023-05-08T10:24:17.786Z,2.56
2023-05-08T10:27:09.843Z,2.56
2023-05-08T10:29:54.010Z,2.47
2023-05-08T10:32:28.602Z,2.40
2023-05-08T10:35:03.211Z,2.38
2023-05-08T10:37:37.049Z,2.30
2023-05-08T10:40:10.434Z,2.37
2023-05-08T10:42:43.061Z,2.88
2023-05-08T10:45:15.257Z,2.37
2023-05-08T10:48:08.604Z,2.43
2023-05-08T10:50:46.358Z,2.56
2023-05-08T10:53:34.662Z,2.64
2023-05-08T10:56:07.266Z,1.93
2023-05-08T10:58:38.996Z,1.88
2023-05-08T11:01:12.946Z,1.94
2023-05-08T11:03:47.004Z,1.79
2023-05-08T11:06:43.284Z,1.66
2023-05-08T11:09:20.367Z,1.75
2023-05-08T11:12:20.773Z,1.60
2023-05-08T11:15:02.646Z,1.71
2023-05-08T11:17:34.944Z,1.63
2023-05-08T11:20:07.338Z,1.51
2023-05-08T11:22:48.161Z,1.70
2023-05-08T11:25:43.213Z,1.91
2023-05-08T11:28:17.013Z,1.61
2023-05-08T11:30:54.280Z,1.66
2023-05-08T11:33:37.478Z,2.09
2023-05-08T11:36:19.776Z,2.86
2023-05-08T11:39:10.477Z,2.69
2023-05-08T11:41:42.212Z,2.42
2023-05-08T11:44:20.669Z,2.15
2023-05-08T11:46:54.644Z,2.47
2023-05-08T11:49:29.525Z,2.40
2023-05-08T11:52:02.177Z,2.23
2023-05-08T11:54:34.011Z,2.24
2023-05-08T11:57:05.645Z,1.85
2023-05-08T11:59:37.232Z,1.90
2023-05-08T12:02:09.715Z,1.99
2023-05-08T12:04:46.529Z,2.35
2023-05-08T12:07:18.476Z,1.77
2023-05-08T12:09:52.747Z,1.78
2023-05-08T12:12:35.563Z,2.08
2023-05-08T12:15:09.214Z,1.96
2023-05-08T12:17:42.268Z,2.00
2023-05-08T12:20:15.707Z,2.14
2023-05-08T12:22:52.771Z,1.77
2023-05-08T12:25:25.690Z,1.21
2023-05-08T12:27:58.284Z,1.27
2023-05-08T12:30:30.118Z,1.59
2023-05-08T12:33:02.584Z,1.57
2023-05-08T12:35:34.662Z,1.63
2023-05-08T12:38:08.182Z,1.63
2023-05-08T12:40:47.954Z,1.95
2023-05-08T12:43:19.565Z,2.41
2023-05-08T12:45:51.445Z,2.01
2023-05-08T12:48:23.024Z,1.58
2023-05-08T12:50:55.132Z,1.47
2023-05-08T12:53:31.110Z,1.40
2023-05-08T12:56:04.565Z,1.51
2023-05-08T12:58:38.019Z,1.34
2023-05-08T13:01:12.100Z,1.47
2023-05-08T13:03:44.705Z,1.61
2023-05-08T13:06:22.231Z,1.52
2023-05-08T13:08:54.844Z,2.09
2023-05-08T13:11:31.294Z,1.77
2023-05-08T13:14:03.198Z,5.76
2023-05-08T13:16:47.807Z,2.70
2023-05-08T13:19:19.988Z,1.99
2023-05-08T13:21:54.461Z,1.98
2023-05-08T13:24:26.326Z,1.82
2023-05-08T13:26:58.130Z,2.15
2023-05-08T13:29:30.051Z,1.75
2023-05-08T13:32:03.335Z,1.63
2023-05-08T13:34:37.695Z,1.47
2023-05-08T13:39:23.123Z,1.57
2023-05-08T13:41:55.073Z,1.74
2023-05-08T13:44:27.419Z,1.54
2023-05-08T13:46:59.249Z,1.42
2023-05-08T13:49:30.934Z,1.35
2023-05-08T13:52:03.615Z,1.46
2023-05-08T13:54:35.678Z,1.38
2023-05-08T13:57:07.519Z,1.42
2023-05-08T13:59:39.215Z,1.42
2023-05-08T14:02:10.940Z,1.76
2023-05-08T14:04:42.694Z,1.33
2023-05-08T14:07:14.255Z,1.15
2023-05-08T14:09:46.471Z,1.19
2023-05-08T14:12:18.206Z,1.27
2023-05-08T14:14:49.783Z,1.17
2023-05-08T14:17:21.460Z,1.12
2023-05-08T14:19:52.998Z,0.91
2023-05-08T14:22:24.828Z,1.08
2023-05-08T14:24:56.442Z,1.03
2023-05-08T14:27:28.100Z,0.99
2023-05-08T14:29:59.653Z,1.14
2023-05-08T14:32:31.265Z,1.14
2023-05-08T14:35:02.961Z,0.95
2023-05-08T14:37:34.611Z,0.86
2023-05-08T14:40:07.273Z,0.90
2023-05-08T14:42:38.955Z,1.19
2023-05-08T14:45:11.277Z,1.25
2023-05-08T14:47:43.159Z,1.73
2023-05-08T14:50:14.825Z,1.23
2023-05-08T14:52:46.627Z,1.06
2023-05-08T14:55:18.702Z,1.31
2023-05-08T14:57:50.924Z,0.95
2023-05-08T15:00:22.709Z,1.10
2023-05-08T15:02:54.689Z,1.17
2023-05-08T15:05:26.905Z,1.33
2023-05-08T15:07:58.940Z,0.95
2023-05-08T15:10:30.664Z,1.17
2023-05-08T15:13:02.519Z,1.19
2023-05-08T15:15:34.345Z,0.97
2023-05-08T15:18:06.142Z,0.91
2023-05-08T15:20:38.006Z,0.77
2023-05-08T15:23:10.377Z,1.17
2023-05-08T15:25:42.413Z,1.30
2023-05-08T15:28:14.441Z,1.19
2023-05-08T15:30:48.207Z,1.43
2023-05-08T15:33:20.105Z,1.31
2023-05-08T15:35:52.204Z,1.27
2023-05-08T15:38:24.725Z,1.77
2023-05-08T15:40:56.867Z,1.50
2023-05-08T15:43:28.724Z,1.35
2023-05-08T15:46:01.453Z,1.48
2023-05-08T15:48:33.331Z,1.47
2023-05-08T15:51:05.166Z,1.51
2023-05-08T15:53:36.904Z,1.48
2023-05-08T15:56:09.035Z,1.41
2023-05-08T15:58:41.183Z,1.45
2023-05-08T16:01:13.419Z,1.24
2023-05-08T16:03:45.709Z,1.17
2023-05-08T16:06:17.518Z,1.37
2023-05-08T16:08:49.403Z,1.34
2023-05-08T16:11:22.007Z,1.39
2023-05-08T16:13:53.798Z,1.30
2023-05-08T16:16:26.182Z,1.15
2023-05-08T16:18:57.812Z,1.16
2023-05-08T16:21:29.421Z,1.01
2023-05-08T16:24:00.975Z,1.16
2023-05-08T16:26:34.492Z,1.52
2023-05-08T16:29:06.328Z,1.29
2023-05-08T16:31:38.053Z,1.25
2023-05-08T16:34:09.817Z,1.24
2023-05-08T16:36:41.435Z,1.36
2023-05-08T16:39:13.097Z,1.37
2023-05-08T16:41:44.737Z,1.40
2023-05-08T16:44:16.272Z,1.41
2023-05-08T16:46:47.959Z,1.29
2023-05-08T16:49:19.565Z,1.31
2023-05-08T16:51:51.193Z,1.15
2023-05-08T16:54:22.724Z,1.02
2023-05-08T16:56:54.294Z,0.96
2023-05-08T16:59:25.843Z,0.87
2023-05-08T17:01:57.417Z,0.96
2023-05-08T17:04:30.792Z,0.99
2023-05-08T17:07:02.558Z,1.05
2023-05-08T17:09:35.084Z,0.99
2023-05-08T17:12:08.027Z,1.05
2023-05-08T17:14:39.738Z,1.04
2023-05-08T17:17:11.751Z,1.21
2023-05-08T17:19:43.300Z,1.23
2023-05-08T17:22:14.848Z,1.14
2023-05-08T17:24:46.576Z,1.26
2023-05-08T17:27:18.326Z,1.26
2023-05-08T17:29:49.854Z,1.18
2023-05-08T17:32:21.373Z,1.26
2023-05-08T17:34:52.901Z,1.20
2023-05-08T17:37:24.409Z,1.22
2023-05-08T17:39:55.971Z,1.19
2023-05-08T17:42:27.684Z,1.18
2023-05-08T17:44:59.388Z,1.16
2023-05-08T17:47:31.919Z,1.14
2023-05-08T17:50:03.912Z,1.08
2023-05-08T17:52:35.514Z,1.43
2023-05-08T17:55:08.037Z,1.18
2023-05-08T17:57:39.872Z,1.35
2023-05-08T18:00:12.603Z,1.19
2023-05-08T18:02:44.749Z,1.13
2023-05-08T18:05:16.810Z,1.18
2023-05-08T18:07:48.589Z,1.24
2023-05-08T18:10:20.819Z,1.04
2023-05-08T18:12:52.947Z,1.14
2023-05-08T18:15:24.882Z,1.23
2023-05-08T18:17:56.868Z,1.17
2023-05-08T18:20:29.320Z,1.24
2023-05-08T18:23:02.356Z,1.16
2023-05-08T18:25:35.810Z,1.35
2023-05-08T18:28:07.632Z,1.27
2023-05-08T18:30:39.426Z,1.36
2023-05-08T18:33:11.048Z,1.32
2023-05-08T18:35:42.612Z,1.34
2023-05-08T18:38:14.353Z,1.44
2023-05-08T18:40:45.965Z,1.41
2023-05-08T18:43:17.478Z,1.25
2023-05-08T18:45:49.080Z,1.41
2023-05-08T18:48:20.657Z,1.33
2023-05-08T18:50:52.209Z,1.39
2023-05-08T18:53:23.887Z,1.21
2023-05-08T18:55:55.591Z,1.30
2023-05-08T18:58:27.136Z,1.25
2023-05-08T19:00:59.174Z,1.36
2023-05-08T19:03:30.957Z,1.28
2023-05-08T19:06:02.623Z,1.29
2023-05-08T19:08:34.173Z,1.09
2023-05-08T19:11:05.765Z,1.13
2023-05-08T19:13:37.999Z,1.15
2023-05-08T19:16:09.683Z,1.30
2023-05-08T19:18:41.251Z,1.02
2023-05-08T19:21:12.822Z,1.25
2023-05-08T19:23:44.862Z,1.02
2023-05-08T19:26:17.326Z,1.11
2023-05-08T19:28:48.912Z,1.13
2023-05-08T19:31:20.555Z,1.33
2023-05-08T19:33:52.470Z,1.31
2023-05-08T19:36:24.120Z,1.41
2023-05-08T19:38:55.732Z,1.21
2023-05-08T19:41:27.270Z,1.24
2023-05-08T19:43:59.034Z,1.27
2023-05-08T19:46:30.716Z,1.22
2023-05-08T19:49:02.480Z,1.24
2023-05-08T19:51:37.268Z,1.25
2023-05-08T19:54:12.628Z,1.12
2023-05-08T19:56:44.293Z,1.24
2023-05-08T19:59:16.256Z,1.19
2023-05-08T20:01:48.366Z,1.35
2023-05-08T20:04:20.343Z,1.19
2023-05-08T20:06:52.790Z,1.25
2023-05-08T20:09:25.156Z,1.57
2023-05-08T20:12:00.556Z,1.16
2023-05-08T20:14:32.267Z,1.20
2023-05-08T20:17:04.365Z,1.34
2023-05-08T20:19:39.146Z,1.15
2023-05-08T20:22:14.557Z,1.25
2023-05-08T20:24:46.418Z,1.17
2023-05-08T20:27:18.409Z,1.22
2023-05-08T20:29:50.085Z,1.23
2023-05-08T20:32:23.330Z,1.10
2023-05-08T20:34:55.422Z,1.11
2023-05-08T20:37:27.322Z,1.34
2023-05-08T20:39:59.050Z,1.19
2023-05-08T20:42:31.086Z,1.20
2023-05-08T20:45:03.204Z,1.17
2023-05-08T20:47:37.431Z,1.13
2023-05-08T20:50:09.809Z,1.14
2023-05-08T20:52:42.635Z,1.31
2023-05-08T20:55:14.747Z,1.25
2023-05-08T20:57:46.525Z,1.19
2023-05-08T21:00:18.504Z,1.18
2023-05-08T21:02:51.338Z,1.19
2023-05-08T21:05:25.280Z,1.11
2023-05-08T21:07:57.273Z,1.09
2023-05-08T21:10:29.113Z,1.21
2023-05-08T21:13:00.784Z,1.08
2023-05-08T21:15:32.785Z,1.07
2023-05-08T21:18:04.659Z,1.18
2023-05-08T21:20:36.211Z,1.20
2023-05-08T21:23:07.849Z,1.27
2023-05-08T21:25:39.406Z,1.14
2023-05-08T21:28:11.032Z,1.19
2023-05-08T21:30:43.703Z,1.37
2023-05-08T21:33:15.329Z,1.18
2023-05-08T21:35:47.020Z,1.25
2023-05-08T21:38:18.610Z,1.36
2023-05-08T21:40:50.160Z,1.19
2023-05-08T21:43:21.809Z,1.23
2023-05-08T21:45:53.404Z,1.24
2023-05-08T21:48:24.971Z,1.38
2023-05-08T21:50:56.625Z,1.31
2023-05-08T21:53:29.278Z,1.27
2023-05-08T21:56:00.879Z,1.33
2023-05-08T21:58:32.465Z,1.26
2023-05-08T22:01:04.170Z,1.22
2023-05-08T22:03:35.818Z,1.38
2023-05-08T22:06:07.526Z,1.31
2023-05-08T22:08:39.120Z,1.17
2023-05-08T22:11:10.712Z,1.22
2023-05-08T22:13:42.479Z,1.23
2023-05-08T22:16:14.479Z,1.09
2023-05-08T22:18:46.920Z,1.10
2023-05-08T22:21:19.112Z,1.09
2023-05-08T22:23:51.811Z,1.13
2023-05-08T22:26:24.089Z,1.04
2023-05-08T22:28:56.301Z,1.13
2023-05-08T22:31:28.249Z,1.17
2023-05-08T22:33:59.951Z,1.28
2023-05-08T22:36:31.803Z,1.07
2023-05-08T22:39:06.993Z,1.02
2023-05-08T22:41:39.114Z,1.22
2023-05-08T22:44:11.447Z,1.06
2023-05-08T22:46:43.323Z,1.17
2023-05-08T22:49:15.362Z,1.02
2023-05-08T22:51:47.512Z,1.27
2023-05-08T22:54:19.465Z,1.25
2023-05-08T22:56:51.984Z,1.24
2023-05-08T22:59:23.831Z,1.23
2023-05-08T23:01:55.498Z,1.45
2023-05-08T23:04:27.463Z,1.19
2023-05-08T23:07:00.519Z,1.30
2023-05-08T23:09:32.245Z,1.42
2023-05-08T23:12:04.135Z,1.47
2023-05-08T23:14:35.744Z,1.46
2023-05-08T23:17:07.376Z,1.38
2023-05-08T23:19:39.260Z,1.52
2023-05-08T23:22:10.873Z,1.43
2023-05-08T23:24:42.535Z,1.42
2023-05-08T23:27:14.217Z,1.50
2023-05-08T23:29:45.932Z,1.38
2023-05-08T23:32:17.526Z,1.42
2023-05-08T23:34:49.136Z,1.61
2023-05-08T23:37:21.967Z,1.68
2023-05-08T23:39:55.116Z,1.49
2023-05-08T23:42:26.741Z,1.45
2023-05-08T23:44:58.295Z,1.31
2023-05-08T23:47:29.945Z,1.55
2023-05-08T23:50:01.784Z,1.42
2023-05-08T23:52:33.454Z,1.49
2023-05-08T23:55:05.521Z,1.43
2023-05-08T23:57:37.331Z,1.68
